sensor_id;sensor_type;location;lat;lon;timestamp;P1;durP1;ratioP1;P2;durP2;ratioP2
3443;SDS011;1736;52.068;6.968;2023-12-20T00:02:01;14.40;;;8.20;;
3443;SDS011;1736;52.068;6.968;2023-12-20T00:04:28;12.00;;;7.90;;
3443;SDS011;1736;52.068;6.968;2023-12-20T00:06:55;13.77;;;8.60;;
3443;SDS011;1736;52.068;6.968;2023-12-20T00:09:21;21.03;;;9.23;;
3443;SDS011;1736;52.068;6.968;2023-12-20T00:11:48;20.83;;;8.77;;
3443;SDS011;1736;52.068;6.968;2023-12-20T00:14:16;16.23;;;8.97;;
3443;SDS011;1736;52.068;6.968;2023-12-20T00:16:42;15.13;;;8.90;;
3443;SDS011;1736;52.068;6.968;2023-12-20T00:19:09;20.67;;;10.40;;
3443;SDS011;1736;52.068;6.968;2023-12-20T00:21:35;21.17;;;10.77;;
3443;SDS011;1736;52.068;6.968;2023-12-20T00:24:02;17.70;;;10.10;;
3443;SDS011;1736;52.068;6.968;2023-12-20T00:26:29;19.07;;;10.60;;
3443;SDS011;1736;52.068;6.968;2023-12-20T00:28:56;17.70;;;11.27;;
3443;SDS011;1736;52.068;6.968;2023-12-20T00:31:23;19.07;;;10.90;;
3443;SDS011;1736;52.068;6.968;2023-12-20T00:33:50;21.20;;;11.53;;
3443;SDS011;1736;52.068;6.968;2023-12-20T00:36:17;17.30;;;10.33;;
3443;SDS011;1736;52.068;6.968;2023-12-20T00:38:43;18.27;;;10.60;;
3443;SDS011;1736;52.068;6.968;2023-12-20T00:41:10;23.37;;;11.20;;
3443;SDS011;1736;52.068;6.968;2023-12-20T00:43:36;23.33;;;11.97;;
3443;SDS011;1736;52.068;6.968;2023-12-20T00:46:03;18.23;;;10.00;;
3443;SDS011;1736;52.068;6.968;2023-12-20T00:48:31;19.33;;;10.40;;
3443;SDS011;1736;52.068;6.968;2023-12-20T00:50:57;15.77;;;10.00;;
3443;SDS011;1736;52.068;6.968;2023-12-20T00:53:24;20.57;;;10.37;;
3443;SDS011;1736;52.068;6.968;2023-12-20T00:55:50;20.20;;;10.20;;
3443;SDS011;1736;52.068;6.968;2023-12-20T00:58:17;15.57;;;10.07;;
3443;SDS011;1736;52.068;6.968;2023-12-20T01:00:44;15.93;;;10.23;;
3443;SDS011;1736;52.068;6.968;2023-12-20T01:03:10;14.30;;;10.30;;
3443;SDS011;1736;52.068;6.968;2023-12-20T01:05:38;16.37;;;9.80;;
3443;SDS011;1736;52.068;6.968;2023-12-20T01:08:05;16.57;;;9.43;;
3443;SDS011;1736;52.068;6.968;2023-12-20T01:10:32;22.43;;;10.23;;
3443;SDS011;1736;52.068;6.968;2023-12-20T01:12:59;26.33;;;8.50;;
3443;SDS011;1736;52.068;6.968;2023-12-20T01:15:25;15.07;;;8.93;;
3443;SDS011;1736;52.068;6.968;2023-12-20T01:17:52;16.93;;;8.40;;
3443;SDS011;1736;52.068;6.968;2023-12-20T01:20:18;16.93;;;7.70;;
3443;SDS011;1736;52.068;6.968;2023-12-20T01:22:47;14.20;;;7.57;;
3443;SDS011;1736;52.068;6.968;2023-12-20T01:25:13;14.20;;;7.23;;
3443;SDS011;1736;52.068;6.968;2023-12-20T01:27:40;10.90;;;6.50;;
3443;SDS011;1736;52.068;6.968;2023-12-20T01:30:07;13.40;;;5.70;;
3443;SDS011;1736;52.068;6.968;2023-12-20T01:32:34;18.03;;;5.90;;
3443;SDS011;1736;52.068;6.968;2023-12-20T01:35:01;11.80;;;5.20;;
3443;SDS011;1736;52.068;6.968;2023-12-20T01:37:28;17.90;;;5.57;;
3443;SDS011;1736;52.068;6.968;2023-12-20T01:39:56;11.83;;;5.23;;
3443;SDS011;1736;52.068;6.968;2023-12-20T01:42:23;16.43;;;5.13;;
3443;SDS011;1736;52.068;6.968;2023-12-20T01:44:50;9.20;;;4.80;;
3443;SDS011;1736;52.068;6.968;2023-12-20T01:47:16;17.20;;;4.30;;
3443;SDS011;1736;52.068;6.968;2023-12-20T01:49:43;16.00;;;5.10;;
3443;SDS011;1736;52.068;6.968;2023-12-20T01:52:10;11.70;;;4.20;;
3443;SDS011;1736;52.068;6.968;2023-12-20T01:54:37;12.40;;;4.40;;
3443;SDS011;1736;52.068;6.968;2023-12-20T01:57:06;20.53;;;4.30;;
3443;SDS011;1736;52.068;6.968;2023-12-20T01:59:34;12.70;;;3.73;;
3443;SDS011;1736;52.068;6.968;2023-12-20T02:02:01;12.23;;;4.33;;
3443;SDS011;1736;52.068;6.968;2023-12-20T02:04:29;13.73;;;4.50;;
3443;SDS011;1736;52.068;6.968;2023-12-20T02:06:56;8.97;;;3.40;;
3443;SDS011;1736;52.068;6.968;2023-12-20T02:09:25;16.97;;;4.00;;
3443;SDS011;1736;52.068;6.968;2023-12-20T02:11:52;23.27;;;4.93;;
3443;SDS011;1736;52.068;6.968;2023-12-20T02:14:21;11.23;;;4.37;;
3443;SDS011;1736;52.068;6.968;2023-12-20T02:16:48;8.57;;;4.10;;
3443;SDS011;1736;52.068;6.968;2023-12-20T02:19:14;17.53;;;4.03;;
3443;SDS011;1736;52.068;6.968;2023-12-20T02:21:45;16.07;;;4.10;;
3443;SDS011;1736;52.068;6.968;2023-12-20T02:24:11;16.40;;;4.70;;
3443;SDS011;1736;52.068;6.968;2023-12-20T02:26:38;14.77;;;4.27;;
3443;SDS011;1736;52.068;6.968;2023-12-20T02:29:04;24.37;;;4.80;;
3443;SDS011;1736;52.068;6.968;2023-12-20T02:31:31;15.53;;;5.30;;
3443;SDS011;1736;52.068;6.968;2023-12-20T02:33:58;7.83;;;4.20;;
3443;SDS011;1736;52.068;6.968;2023-12-20T02:36:24;8.00;;;4.03;;
3443;SDS011;1736;52.068;6.968;2023-12-20T02:38:52;10.27;;;4.53;;
3443;SDS011;1736;52.068;6.968;2023-12-20T02:41:19;13.03;;;4.37;;
3443;SDS011;1736;52.068;6.968;2023-12-20T02:43:45;19.30;;;4.80;;
3443;SDS011;1736;52.068;6.968;2023-12-20T02:46:12;16.47;;;4.87;;
3443;SDS011;1736;52.068;6.968;2023-12-20T02:48:41;15.23;;;4.73;;
3443;SDS011;1736;52.068;6.968;2023-12-20T02:51:08;9.57;;;4.80;;
3443;SDS011;1736;52.068;6.968;2023-12-20T02:53:34;13.13;;;4.60;;
3443;SDS011;1736;52.068;6.968;2023-12-20T02:56:02;13.93;;;4.50;;
3443;SDS011;1736;52.068;6.968;2023-12-20T02:58:29;15.37;;;4.90;;
3443;SDS011;1736;52.068;6.968;2023-12-20T03:00:56;15.30;;;4.70;;
3443;SDS011;1736;52.068;6.968;2023-12-20T03:03:22;8.93;;;4.10;;
3443;SDS011;1736;52.068;6.968;2023-12-20T03:05:49;18.77;;;5.23;;
3443;SDS011;1736;52.068;6.968;2023-12-20T03:08:15;14.83;;;4.73;;
3443;SDS011;1736;52.068;6.968;2023-12-20T03:10:42;17.10;;;4.77;;
3443;SDS011;1736;52.068;6.968;2023-12-20T03:13:10;18.40;;;5.00;;
3443;SDS011;1736;52.068;6.968;2023-12-20T03:15:36;13.73;;;4.77;;
3443;SDS011;1736;52.068;6.968;2023-12-20T03:18:03;13.30;;;4.73;;
3443;SDS011;1736;52.068;6.968;2023-12-20T03:20:30;12.13;;;4.33;;
3443;SDS011;1736;52.068;6.968;2023-12-20T03:22:59;16.73;;;4.40;;
3443;SDS011;1736;52.068;6.968;2023-12-20T03:25:25;10.13;;;3.53;;
3443;SDS011;1736;52.068;6.968;2023-12-20T03:27:52;15.90;;;5.13;;
3443;SDS011;1736;52.068;6.968;2023-12-20T03:30:20;13.10;;;4.13;;
3443;SDS011;1736;52.068;6.968;2023-12-20T03:32:47;14.33;;;4.43;;
3443;SDS011;1736;52.068;6.968;2023-12-20T03:35:13;18.60;;;4.90;;
3443;SDS011;1736;52.068;6.968;2023-12-20T03:37:40;14.63;;;4.60;;
3443;SDS011;1736;52.068;6.968;2023-12-20T03:40:07;16.60;;;4.87;;
3443;SDS011;1736;52.068;6.968;2023-12-20T03:42:34;17.03;;;5.10;;
3443;SDS011;1736;52.068;6.968;2023-12-20T03:45:00;15.00;;;4.60;;
3443;SDS011;1736;52.068;6.968;2023-12-20T03:47:28;19.10;;;4.50;;
3443;SDS011;1736;52.068;6.968;2023-12-20T03:49:55;12.50;;;4.20;;
3443;SDS011;1736;52.068;6.968;2023-12-20T03:52:21;13.90;;;4.80;;
3443;SDS011;1736;52.068;6.968;2023-12-20T03:54:48;16.40;;;4.67;;
3443;SDS011;1736;52.068;6.968;2023-12-20T03:57:14;17.70;;;5.03;;
3443;SDS011;1736;52.068;6.968;2023-12-20T03:59:41;13.20;;;4.70;;
3443;SDS011;1736;52.068;6.968;2023-12-20T04:02:07;14.83;;;5.00;;
3443;SDS011;1736;52.068;6.968;2023-12-20T04:04:35;17.70;;;5.40;;
3443;SDS011;1736;52.068;6.968;2023-12-20T04:07:02;19.63;;;4.80;;
3443;SDS011;1736;52.068;6.968;2023-12-20T04:09:28;20.20;;;5.67;;
3443;SDS011;1736;52.068;6.968;2023-12-20T04:11:55;22.57;;;6.23;;
3443;SDS011;1736;52.068;6.968;2023-12-20T04:14:21;18.60;;;5.83;;
3443;SDS011;1736;52.068;6.968;2023-12-20T04:16:48;15.20;;;5.17;;
3443;SDS011;1736;52.068;6.968;2023-12-20T04:19:14;19.47;;;5.63;;
3443;SDS011;1736;52.068;6.968;2023-12-20T04:21:42;14.83;;;6.00;;
3443;SDS011;1736;52.068;6.968;2023-12-20T04:24:09;20.93;;;6.80;;
3443;SDS011;1736;52.068;6.968;2023-12-20T04:26:35;18.90;;;6.50;;
3443;SDS011;1736;52.068;6.968;2023-12-20T04:29:02;18.37;;;7.20;;
3443;SDS011;1736;52.068;6.968;2023-12-20T04:31:28;16.90;;;6.30;;
3443;SDS011;1736;52.068;6.968;2023-12-20T04:33:55;22.77;;;6.60;;
3443;SDS011;1736;52.068;6.968;2023-12-20T04:36:21;19.37;;;7.67;;
3443;SDS011;1736;52.068;6.968;2023-12-20T04:38:51;19.10;;;6.90;;
3443;SDS011;1736;52.068;6.968;2023-12-20T04:41:18;20.07;;;6.97;;
3443;SDS011;1736;52.068;6.968;2023-12-20T04:43:44;14.43;;;6.00;;
3443;SDS011;1736;52.068;6.968;2023-12-20T04:46:11;22.83;;;6.30;;
3443;SDS011;1736;52.068;6.968;2023-12-20T04:48:37;17.10;;;6.67;;
3443;SDS011;1736;52.068;6.968;2023-12-20T04:51:04;16.23;;;6.50;;
3443;SDS011;1736;52.068;6.968;2023-12-20T04:53:31;16.73;;;6.40;;
3443;SDS011;1736;52.068;6.968;2023-12-20T04:55:59;11.80;;;6.20;;
3443;SDS011;1736;52.068;6.968;2023-12-20T04:58:25;24.73;;;7.00;;
3443;SDS011;1736;52.068;6.968;2023-12-20T05:00:52;13.73;;;5.67;;
3443;SDS011;1736;52.068;6.968;2023-12-20T05:03:18;21.40;;;6.20;;
3443;SDS011;1736;52.068;6.968;2023-12-20T05:05:45;18.13;;;6.23;;
3443;SDS011;1736;52.068;6.968;2023-12-20T05:08:11;15.37;;;5.47;;
3443;SDS011;1736;52.068;6.968;2023-12-20T05:10:38;21.43;;;6.50;;
3443;SDS011;1736;52.068;6.968;2023-12-20T05:13:06;19.40;;;6.23;;
3443;SDS011;1736;52.068;6.968;2023-12-20T05:15:33;32.33;;;7.70;;
3443;SDS011;1736;52.068;6.968;2023-12-20T05:18:00;15.07;;;5.80;;
3443;SDS011;1736;52.068;6.968;2023-12-20T05:20:27;19.00;;;5.90;;
3443;SDS011;1736;52.068;6.968;2023-12-20T05:22:53;22.30;;;5.90;;
3443;SDS011;1736;52.068;6.968;2023-12-20T05:25:20;16.83;;;5.80;;
3443;SDS011;1736;52.068;6.968;2023-12-20T05:27:46;19.67;;;5.83;;
3443;SDS011;1736;52.068;6.968;2023-12-20T05:30:14;18.53;;;6.60;;
3443;SDS011;1736;52.068;6.968;2023-12-20T05:32:41;19.33;;;5.90;;
3443;SDS011;1736;52.068;6.968;2023-12-20T05:35:07;15.33;;;6.03;;
3443;SDS011;1736;52.068;6.968;2023-12-20T05:37:34;15.20;;;5.50;;
3443;SDS011;1736;52.068;6.968;2023-12-20T05:40:00;23.93;;;5.50;;
3443;SDS011;1736;52.068;6.968;2023-12-20T05:42:27;16.63;;;5.60;;
3443;SDS011;1736;52.068;6.968;2023-12-20T05:44:54;20.27;;;6.40;;
3443;SDS011;1736;52.068;6.968;2023-12-20T05:47:22;19.50;;;5.80;;
3443;SDS011;1736;52.068;6.968;2023-12-20T05:49:48;15.07;;;5.90;;
3443;SDS011;1736;52.068;6.968;2023-12-20T05:52:15;15.17;;;5.10;;
3443;SDS011;1736;52.068;6.968;2023-12-20T05:54:42;25.20;;;5.90;;
3443;SDS011;1736;52.068;6.968;2023-12-20T05:57:08;24.50;;;5.23;;
3443;SDS011;1736;52.068;6.968;2023-12-20T05:59:35;14.90;;;5.70;;
3443;SDS011;1736;52.068;6.968;2023-12-20T06:02:02;18.57;;;5.80;;
3443;SDS011;1736;52.068;6.968;2023-12-20T06:04:30;17.73;;;6.00;;
3443;SDS011;1736;52.068;6.968;2023-12-20T06:06:57;14.37;;;5.67;;
3443;SDS011;1736;52.068;6.968;2023-12-20T06:09:24;27.53;;;6.10;;
3443;SDS011;1736;52.068;6.968;2023-12-20T06:11:51;14.53;;;5.40;;
3443;SDS011;1736;52.068;6.968;2023-12-20T06:14:16;18.53;;;4.73;;
3443;SDS011;1736;52.068;6.968;2023-12-20T06:16:44;20.27;;;5.63;;
3443;SDS011;1736;52.068;6.968;2023-12-20T06:19:11;18.80;;;5.37;;
3443;SDS011;1736;52.068;6.968;2023-12-20T06:21:40;23.00;;;5.30;;
3443;SDS011;1736;52.068;6.968;2023-12-20T06:24:06;21.00;;;6.33;;
3443;SDS011;1736;52.068;6.968;2023-12-20T06:26:34;13.00;;;4.97;;
3443;SDS011;1736;52.068;6.968;2023-12-20T06:29:00;14.13;;;4.83;;
3443;SDS011;1736;52.068;6.968;2023-12-20T06:31:26;11.70;;;5.23;;
3443;SDS011;1736;52.068;6.968;2023-12-20T06:33:53;14.93;;;5.07;;
3443;SDS011;1736;52.068;6.968;2023-12-20T06:36:22;15.53;;;4.73;;
3443;SDS011;1736;52.068;6.968;2023-12-20T06:38:50;15.93;;;5.40;;
3443;SDS011;1736;52.068;6.968;2023-12-20T06:41:17;19.70;;;5.40;;
3443;SDS011;1736;52.068;6.968;2023-12-20T06:43:44;18.07;;;5.57;;
3443;SDS011;1736;52.068;6.968;2023-12-20T06:46:10;21.37;;;5.33;;
3443;SDS011;1736;52.068;6.968;2023-12-20T06:48:38;19.60;;;6.40;;
3443;SDS011;1736;52.068;6.968;2023-12-20T06:51:05;13.80;;;4.93;;
3443;SDS011;1736;52.068;6.968;2023-12-20T06:53:31;19.60;;;4.77;;
3443;SDS011;1736;52.068;6.968;2023-12-20T06:55:59;16.40;;;5.03;;
3443;SDS011;1736;52.068;6.968;2023-12-20T06:58:26;17.67;;;5.80;;
3443;SDS011;1736;52.068;6.968;2023-12-20T07:00:52;14.40;;;5.13;;
3443;SDS011;1736;52.068;6.968;2023-12-20T07:03:19;16.10;;;4.67;;
3443;SDS011;1736;52.068;6.968;2023-12-20T07:05:45;22.00;;;5.27;;
3443;SDS011;1736;52.068;6.968;2023-12-20T07:08:12;15.63;;;5.27;;
3443;SDS011;1736;52.068;6.968;2023-12-20T07:10:40;21.07;;;6.07;;
3443;SDS011;1736;52.068;6.968;2023-12-20T07:13:09;15.67;;;5.10;;
3443;SDS011;1736;52.068;6.968;2023-12-20T07:15:35;18.70;;;5.90;;
3443;SDS011;1736;52.068;6.968;2023-12-20T07:18:02;19.80;;;6.70;;
3443;SDS011;1736;52.068;6.968;2023-12-20T07:20:29;16.40;;;5.20;;
3443;SDS011;1736;52.068;6.968;2023-12-20T07:22:56;15.03;;;5.00;;
3443;SDS011;1736;52.068;6.968;2023-12-20T07:25:22;18.70;;;5.40;;
3443;SDS011;1736;52.068;6.968;2023-12-20T07:27:49;21.53;;;6.10;;
3443;SDS011;1736;52.068;6.968;2023-12-20T07:30:17;18.80;;;5.23;;
3443;SDS011;1736;52.068;6.968;2023-12-20T07:32:44;15.50;;;5.37;;
3443;SDS011;1736;52.068;6.968;2023-12-20T07:35:10;16.90;;;5.60;;
3443;SDS011;1736;52.068;6.968;2023-12-20T07:37:37;19.17;;;4.90;;
3443;SDS011;1736;52.068;6.968;2023-12-20T07:40:04;18.70;;;5.63;;
3443;SDS011;1736;52.068;6.968;2023-12-20T07:42:31;21.37;;;4.87;;
3443;SDS011;1736;52.068;6.968;2023-12-20T07:44:58;30.03;;;5.80;;
3443;SDS011;1736;52.068;6.968;2023-12-20T07:47:26;18.10;;;5.83;;
3443;SDS011;1736;52.068;6.968;2023-12-20T07:49:52;17.03;;;5.47;;
3443;SDS011;1736;52.068;6.968;2023-12-20T07:52:19;23.77;;;5.40;;
3443;SDS011;1736;52.068;6.968;2023-12-20T07:54:47;11.90;;;4.90;;
3443;SDS011;1736;52.068;6.968;2023-12-20T07:57:13;21.80;;;5.23;;
3443;SDS011;1736;52.068;6.968;2023-12-20T07:59:40;19.90;;;5.50;;
3443;SDS011;1736;52.068;6.968;2023-12-20T08:02:06;16.73;;;5.13;;
3443;SDS011;1736;52.068;6.968;2023-12-20T08:04:34;18.70;;;4.93;;
3443;SDS011;1736;52.068;6.968;2023-12-20T08:07:01;19.10;;;5.43;;
3443;SDS011;1736;52.068;6.968;2023-12-20T08:09:30;21.93;;;5.70;;
3443;SDS011;1736;52.068;6.968;2023-12-20T08:12:02;15.77;;;5.57;;
3443;SDS011;1736;52.068;6.968;2023-12-20T08:14:28;30.03;;;5.87;;
3443;SDS011;1736;52.068;6.968;2023-12-20T08:16:56;17.30;;;5.87;;
3443;SDS011;1736;52.068;6.968;2023-12-20T08:19:23;17.37;;;5.70;;
3443;SDS011;1736;52.068;6.968;2023-12-20T08:21:50;14.50;;;5.33;;
3443;SDS011;1736;52.068;6.968;2023-12-20T08:24:17;23.70;;;6.43;;
3443;SDS011;1736;52.068;6.968;2023-12-20T08:26:43;21.20;;;6.23;;
3443;SDS011;1736;52.068;6.968;2023-12-20T08:29:12;18.33;;;5.50;;
3443;SDS011;1736;52.068;6.968;2023-12-20T08:31:39;23.97;;;6.00;;
3443;SDS011;1736;52.068;6.968;2023-12-20T08:34:05;18.30;;;5.97;;
3443;SDS011;1736;52.068;6.968;2023-12-20T08:36:32;13.63;;;4.90;;
3443;SDS011;1736;52.068;6.968;2023-12-20T08:39:00;18.90;;;5.40;;
3443;SDS011;1736;52.068;6.968;2023-12-20T08:41:28;14.97;;;5.20;;
3443;SDS011;1736;52.068;6.968;2023-12-20T08:43:55;21.13;;;4.80;;
3443;SDS011;1736;52.068;6.968;2023-12-20T08:46:21;20.60;;;5.70;;
3443;SDS011;1736;52.068;6.968;2023-12-20T08:48:48;24.30;;;5.30;;
3443;SDS011;1736;52.068;6.968;2023-12-20T08:51:14;18.43;;;5.13;;
3443;SDS011;1736;52.068;6.968;2023-12-20T08:53:41;14.63;;;4.93;;
3443;SDS011;1736;52.068;6.968;2023-12-20T08:56:11;17.90;;;5.20;;
3443;SDS011;1736;52.068;6.968;2023-12-20T08:58:38;13.43;;;4.53;;
3443;SDS011;1736;52.068;6.968;2023-12-20T09:01:05;19.97;;;5.33;;
3443;SDS011;1736;52.068;6.968;2023-12-20T09:03:32;20.73;;;5.30;;
3443;SDS011;1736;52.068;6.968;2023-12-20T09:05:59;22.53;;;4.87;;
3443;SDS011;1736;52.068;6.968;2023-12-20T09:08:25;18.43;;;6.80;;
3443;SDS011;1736;52.068;6.968;2023-12-20T09:10:53;19.57;;;5.07;;
3443;SDS011;1736;52.068;6.968;2023-12-20T09:13:21;23.17;;;5.57;;
3443;SDS011;1736;52.068;6.968;2023-12-20T09:15:52;16.53;;;5.87;;
3443;SDS011;1736;52.068;6.968;2023-12-20T09:18:19;14.50;;;5.30;;
3443;SDS011;1736;52.068;6.968;2023-12-20T09:20:46;21.53;;;5.07;;
3443;SDS011;1736;52.068;6.968;2023-12-20T09:23:12;16.73;;;5.80;;
3443;SDS011;1736;52.068;6.968;2023-12-20T09:25:39;22.47;;;5.63;;
3443;SDS011;1736;52.068;6.968;2023-12-20T09:28:06;24.93;;;6.20;;
3443;SDS011;1736;52.068;6.968;2023-12-20T09:30:34;14.40;;;5.17;;
3443;SDS011;1736;52.068;6.968;2023-12-20T09:33:04;16.93;;;5.80;;
3443;SDS011;1736;52.068;6.968;2023-12-20T09:35:32;25.33;;;7.30;;
3443;SDS011;1736;52.068;6.968;2023-12-20T09:37:58;18.40;;;6.53;;
3443;SDS011;1736;52.068;6.968;2023-12-20T09:40:25;28.20;;;7.37;;
3443;SDS011;1736;52.068;6.968;2023-12-20T09:42:55;13.67;;;5.50;;
3443;SDS011;1736;52.068;6.968;2023-12-20T09:45:23;21.27;;;6.80;;
3443;SDS011;1736;52.068;6.968;2023-12-20T09:47:52;16.73;;;7.27;;
3443;SDS011;1736;52.068;6.968;2023-12-20T09:50:19;20.03;;;6.80;;
3443;SDS011;1736;52.068;6.968;2023-12-20T09:52:47;22.40;;;7.30;;
3443;SDS011;1736;52.068;6.968;2023-12-20T09:55:17;17.30;;;6.60;;
3443;SDS011;1736;52.068;6.968;2023-12-20T09:57:44;22.80;;;6.73;;
3443;SDS011;1736;52.068;6.968;2023-12-20T10:00:11;20.07;;;6.53;;
3443;SDS011;1736;52.068;6.968;2023-12-20T10:02:40;19.53;;;6.70;;
3443;SDS011;1736;52.068;6.968;2023-12-20T10:05:13;16.87;;;6.90;;
3443;SDS011;1736;52.068;6.968;2023-12-20T10:07:44;21.63;;;6.70;;
3443;SDS011;1736;52.068;6.968;2023-12-20T10:10:10;30.90;;;6.93;;
3443;SDS011;1736;52.068;6.968;2023-12-20T10:12:39;18.40;;;6.80;;
3443;SDS011;1736;52.068;6.968;2023-12-20T10:15:06;16.07;;;7.37;;
3443;SDS011;1736;52.068;6.968;2023-12-20T10:17:32;23.23;;;7.27;;
3443;SDS011;1736;52.068;6.968;2023-12-20T10:19:59;20.90;;;6.80;;
3443;SDS011;1736;52.068;6.968;2023-12-20T10:25:57;17.70;;;6.43;;
3443;SDS011;1736;52.068;6.968;2023-12-20T10:28:23;18.73;;;6.40;;
3443;SDS011;1736;52.068;6.968;2023-12-20T10:30:53;17.30;;;5.50;;
3443;SDS011;1736;52.068;6.968;2023-12-20T10:33:23;14.53;;;6.50;;
3443;SDS011;1736;52.068;6.968;2023-12-20T10:35:51;13.47;;;5.80;;
3443;SDS011;1736;52.068;6.968;2023-12-20T10:38:18;15.30;;;5.60;;
3443;SDS011;1736;52.068;6.968;2023-12-20T10:40:45;12.17;;;5.50;;
3443;SDS011;1736;52.068;6.968;2023-12-20T10:43:13;13.57;;;6.47;;
3443;SDS011;1736;52.068;6.968;2023-12-20T10:45:41;18.37;;;5.50;;
3443;SDS011;1736;52.068;6.968;2023-12-20T10:48:09;15.73;;;6.00;;
3443;SDS011;1736;52.068;6.968;2023-12-20T10:50:36;11.67;;;5.60;;
3443;SDS011;1736;52.068;6.968;2023-12-20T10:53:05;12.13;;;4.80;;
3443;SDS011;1736;52.068;6.968;2023-12-20T10:55:32;10.47;;;5.10;;
3443;SDS011;1736;52.068;6.968;2023-12-20T10:58:00;11.87;;;6.20;;
3443;SDS011;1736;52.068;6.968;2023-12-20T11:00:29;14.63;;;6.97;;
3443;SDS011;1736;52.068;6.968;2023-12-20T11:02:59;70.53;;;11.60;;
3443;SDS011;1736;52.068;6.968;2023-12-20T11:05:31;162.37;;;20.00;;
3443;SDS011;1736;52.068;6.968;2023-12-20T11:08:06;70.03;;;12.83;;
3443;SDS011;1736;52.068;6.968;2023-12-20T11:10:36;79.80;;;11.90;;
3443;SDS011;1736;52.068;6.968;2023-12-20T11:13:10;11.03;;;5.70;;
3443;SDS011;1736;52.068;6.968;2023-12-20T11:15:46;14.53;;;5.97;;
3443;SDS011;1736;52.068;6.968;2023-12-20T11:18:13;21.77;;;6.10;;
3443;SDS011;1736;52.068;6.968;2023-12-20T11:20:41;15.80;;;5.90;;
3443;SDS011;1736;52.068;6.968;2023-12-20T11:23:08;17.57;;;5.50;;
3443;SDS011;1736;52.068;6.968;2023-12-20T11:25:45;15.93;;;6.03;;
3443;SDS011;1736;52.068;6.968;2023-12-20T11:28:20;13.50;;;5.30;;
3443;SDS011;1736;52.068;6.968;2023-12-20T11:30:49;24.37;;;6.10;;
3443;SDS011;1736;52.068;6.968;2023-12-20T11:33:17;18.07;;;5.60;;
3443;SDS011;1736;52.068;6.968;2023-12-20T11:35:48;19.27;;;5.27;;
3443;SDS011;1736;52.068;6.968;2023-12-20T11:38:15;13.23;;;5.70;;
3443;SDS011;1736;52.068;6.968;2023-12-20T11:40:41;24.97;;;6.67;;
3443;SDS011;1736;52.068;6.968;2023-12-20T11:43:08;19.23;;;5.10;;
3443;SDS011;1736;52.068;6.968;2023-12-20T11:45:35;12.33;;;5.00;;
3443;SDS011;1736;52.068;6.968;2023-12-20T11:48:03;19.57;;;4.80;;
3443;SDS011;1736;52.068;6.968;2023-12-20T11:50:32;23.30;;;5.77;;
3443;SDS011;1736;52.068;6.968;2023-12-20T11:52:58;14.43;;;4.93;;
3443;SDS011;1736;52.068;6.968;2023-12-20T11:55:25;18.33;;;5.57;;
3443;SDS011;1736;52.068;6.968;2023-12-20T11:57:52;17.53;;;5.20;;
3443;SDS011;1736;52.068;6.968;2023-12-20T12:00:19;17.27;;;4.47;;
3443;SDS011;1736;52.068;6.968;2023-12-20T12:02:55;14.00;;;4.20;;
3443;SDS011;1736;52.068;6.968;2023-12-20T12:05:24;12.50;;;4.43;;
3443;SDS011;1736;52.068;6.968;2023-12-20T12:07:50;17.80;;;4.00;;
3443;SDS011;1736;52.068;6.968;2023-12-20T12:10:17;14.37;;;4.87;;
3443;SDS011;1736;52.068;6.968;2023-12-20T12:12:44;20.97;;;4.23;;
3443;SDS011;1736;52.068;6.968;2023-12-20T12:15:10;11.97;;;4.40;;
3443;SDS011;1736;52.068;6.968;2023-12-20T12:17:37;21.50;;;6.20;;
3443;SDS011;1736;52.068;6.968;2023-12-20T12:20:04;20.73;;;4.80;;
3443;SDS011;1736;52.068;6.968;2023-12-20T12:22:34;18.07;;;4.50;;
3443;SDS011;1736;52.068;6.968;2023-12-20T12:25:09;10.47;;;5.10;;
3443;SDS011;1736;52.068;6.968;2023-12-20T12:27:36;13.73;;;4.50;;
3443;SDS011;1736;52.068;6.968;2023-12-20T12:30:04;16.60;;;5.67;;
3443;SDS011;1736;52.068;6.968;2023-12-20T12:32:33;15.93;;;4.80;;
3443;SDS011;1736;52.068;6.968;2023-12-20T12:34:59;18.50;;;4.70;;
3443;SDS011;1736;52.068;6.968;2023-12-20T12:37:26;17.57;;;4.90;;
3443;SDS011;1736;52.068;6.968;2023-12-20T12:39:54;28.30;;;5.50;;
3443;SDS011;1736;52.068;6.968;2023-12-20T12:42:21;14.27;;;3.90;;
3443;SDS011;1736;52.068;6.968;2023-12-20T12:44:50;15.87;;;4.13;;
3443;SDS011;1736;52.068;6.968;2023-12-20T12:47:17;12.90;;;4.60;;
3443;SDS011;1736;52.068;6.968;2023-12-20T12:49:44;13.17;;;3.93;;
3443;SDS011;1736;52.068;6.968;2023-12-20T12:52:10;11.27;;;3.83;;
3443;SDS011;1736;52.068;6.968;2023-12-20T12:54:37;11.03;;;4.20;;
3443;SDS011;1736;52.068;6.968;2023-12-20T12:57:05;11.53;;;3.90;;
3443;SDS011;1736;52.068;6.968;2023-12-20T12:59:31;13.43;;;4.20;;
3443;SDS011;1736;52.068;6.968;2023-12-20T13:01:58;19.63;;;4.50;;
3443;SDS011;1736;52.068;6.968;2023-12-20T13:04:24;10.70;;;4.00;;
3443;SDS011;1736;52.068;6.968;2023-12-20T13:06:51;10.73;;;3.60;;
3443;SDS011;1736;52.068;6.968;2023-12-20T13:09:17;17.67;;;4.43;;
3443;SDS011;1736;52.068;6.968;2023-12-20T13:11:44;20.43;;;4.70;;
3443;SDS011;1736;52.068;6.968;2023-12-20T13:14:13;11.13;;;4.10;;
3443;SDS011;1736;52.068;6.968;2023-12-20T13:16:40;29.00;;;4.70;;
3443;SDS011;1736;52.068;6.968;2023-12-20T13:19:07;23.20;;;4.83;;
3443;SDS011;1736;52.068;6.968;2023-12-20T13:21:34;14.37;;;4.30;;
3443;SDS011;1736;52.068;6.968;2023-12-20T13:24:01;11.63;;;3.70;;
3443;SDS011;1736;52.068;6.968;2023-12-20T13:26:28;20.37;;;4.10;;
3443;SDS011;1736;52.068;6.968;2023-12-20T13:28:55;16.33;;;3.80;;
3443;SDS011;1736;52.068;6.968;2023-12-20T13:31:23;11.87;;;3.83;;
3443;SDS011;1736;52.068;6.968;2023-12-20T13:33:49;13.90;;;3.47;;
3443;SDS011;1736;52.068;6.968;2023-12-20T13:36:17;13.23;;;3.77;;
3443;SDS011;1736;52.068;6.968;2023-12-20T13:38:44;15.30;;;4.97;;
3443;SDS011;1736;52.068;6.968;2023-12-20T13:41:10;17.50;;;4.40;;
3443;SDS011;1736;52.068;6.968;2023-12-20T13:43:37;21.40;;;4.17;;
3443;SDS011;1736;52.068;6.968;2023-12-20T13:46:04;16.07;;;4.17;;
3443;SDS011;1736;52.068;6.968;2023-12-20T13:48:32;15.30;;;3.93;;
3443;SDS011;1736;52.068;6.968;2023-12-20T13:50:58;9.70;;;3.93;;
3443;SDS011;1736;52.068;6.968;2023-12-20T13:53:25;12.03;;;3.60;;
3443;SDS011;1736;52.068;6.968;2023-12-20T13:55:51;9.60;;;3.87;;
3443;SDS011;1736;52.068;6.968;2023-12-20T13:58:18;15.37;;;3.63;;
3443;SDS011;1736;52.068;6.968;2023-12-20T14:00:45;8.17;;;3.57;;
3443;SDS011;1736;52.068;6.968;2023-12-20T14:03:12;14.50;;;4.13;;
3443;SDS011;1736;52.068;6.968;2023-12-20T14:05:39;10.10;;;4.07;;
3443;SDS011;1736;52.068;6.968;2023-12-20T14:08:06;16.03;;;4.30;;
3443;SDS011;1736;52.068;6.968;2023-12-20T14:10:33;16.20;;;4.10;;
3443;SDS011;1736;52.068;6.968;2023-12-20T14:12:59;12.60;;;3.73;;
3443;SDS011;1736;52.068;6.968;2023-12-20T14:15:26;8.60;;;3.87;;
3443;SDS011;1736;52.068;6.968;2023-12-20T14:17:53;13.73;;;4.13;;
3443;SDS011;1736;52.068;6.968;2023-12-20T14:20:19;16.97;;;4.83;;
3443;SDS011;1736;52.068;6.968;2023-12-20T14:22:47;10.40;;;4.00;;
3443;SDS011;1736;52.068;6.968;2023-12-20T14:25:14;21.67;;;5.40;;
3443;SDS011;1736;52.068;6.968;2023-12-20T14:27:41;12.67;;;4.33;;
3443;SDS011;1736;52.068;6.968;2023-12-20T14:30:09;13.50;;;4.80;;
3443;SDS011;1736;52.068;6.968;2023-12-20T14:32:36;19.13;;;5.67;;
3443;SDS011;1736;52.068;6.968;2023-12-20T14:35:04;10.53;;;4.30;;
3443;SDS011;1736;52.068;6.968;2023-12-20T14:37:31;19.60;;;4.87;;
3443;SDS011;1736;52.068;6.968;2023-12-20T14:39:59;22.00;;;5.20;;
3443;SDS011;1736;52.068;6.968;2023-12-20T14:42:26;23.27;;;5.57;;
3443;SDS011;1736;52.068;6.968;2023-12-20T14:44:52;26.30;;;6.67;;
3443;SDS011;1736;52.068;6.968;2023-12-20T14:47:19;17.70;;;5.40;;
3443;SDS011;1736;52.068;6.968;2023-12-20T14:49:46;25.47;;;5.43;;
3443;SDS011;1736;52.068;6.968;2023-12-20T14:52:13;11.50;;;4.70;;
3443;SDS011;1736;52.068;6.968;2023-12-20T14:54:40;18.63;;;6.50;;
3443;SDS011;1736;52.068;6.968;2023-12-20T14:57:08;21.17;;;5.60;;
3443;SDS011;1736;52.068;6.968;2023-12-20T14:59:35;15.17;;;6.13;;
3443;SDS011;1736;52.068;6.968;2023-12-20T15:02:01;13.47;;;5.47;;
3443;SDS011;1736;52.068;6.968;2023-12-20T15:04:29;14.90;;;6.07;;